Tk Rotterdam — A8RG8 — position and weather

sailwx.info

Track history (hours):
 
Tides and Currents Weather Stations Pressure Air Temp Water Temp Dewpoint Dewpoint Depression Visibility Wind Speed Wind Dir Waves Ship Positions

Tk Rotterdam

Last reported at 2014-Jul-22 19:33 UTC. Time now 2014-Jul-23 05:50 UTC.
Position N 40°51' E 029°17'.

Length 130 m; draft 5.2 m.

Type: Cargo ship. MMSI: 636014098.

Date/timePositionNaut miles runAvg speedWind from/ knotsBaromVisibWave heightAir tempDewpointWater temp
2014-Jul-22 19:33N 40°51' E 029°17'2 2.2
2014-Jul-22 18:33N 40°51' E 029°14'1 1.4
2014-Jul-22 17:30N 40°49' E 029°14'0 0.0
2014-Jul-22 16:29N 40°49' E 029°14'0 0.0
2014-Jul-22 15:28N 40°49' E 029°14'0 0.0
2014-Jul-22 14:28N 40°49' E 029°14'  
2014-Jul-19 11:28N 40°49' E 029°14'0 0.0
2014-Jul-19 10:27N 40°49' E 029°14'  
2014-Jul-16 11:20N 40°39' E 024°58'7 9.3
2014-Jul-16 10:33N 40°44' E 024°51'9 8.6
2014-Jul-16 09:33N 40°48' E 024°42'9 8.9
2014-Jul-16 08:33N 40°53' E 024°32'4 2.1
2014-Jul-16 06:28N 40°57' E 024°29'0 0.0
2014-Jul-16 05:27N 40°57' E 024°29'0 0.0
2014-Jul-16 04:30N 40°57' E 024°29'0 0.0
2014-Jul-16 03:32N 40°57' E 024°29'0 0.0
2014-Jul-16 02:32N 40°57' E 024°29'0 0.0
2014-Jul-16 01:31N 40°57' E 024°29'0 0.0
2014-Jul-16 00:31N 40°57' E 024°29'0 0.0
2014-Jul-15 23:30N 40°57' E 024°29'0 0.0
2014-Jul-15 22:26N 40°57' E 024°29'0 0.0
2014-Jul-15 21:29N 40°57' E 024°29'0 0.0
2014-Jul-15 20:16N 40°57' E 024°29'0 0.0
2014-Jul-15 19:09N 40°57' E 024°29'0 0.0
2014-Jul-15 18:33N 40°57' E 024°29'0 0.0
2014-Jul-15 17:08N 40°57' E 024°29'0 0.0
2014-Jul-15 16:32N 40°57' E 024°29'0 0.0
2014-Jul-15 15:19N 40°57' E 024°29'0 0.0
2014-Jul-15 14:28N 40°57' E 024°29'0 0.0
2014-Jul-15 13:15N 40°57' E 024°29'0 0.0
2014-Jul-15 12:33N 40°57' E 024°29'0 0.0
2014-Jul-15 11:32N 40°57' E 024°29'0 0.0
2014-Jul-15 10:07N 40°57' E 024°29'0 0.0
2014-Jul-15 09:25N 40°57' E 024°29'0 0.0
2014-Jul-15 08:18N 40°57' E 024°29'0 0.0
2014-Jul-15 07:33N 40°57' E 024°29'0 0.0
2014-Jul-15 06:29N 40°57' E 024°29'0 0.0
2014-Jul-15 05:32N 40°57' E 024°29'0 0.0
2014-Jul-15 04:28N 40°57' E 024°29'0 0.0
2014-Jul-15 03:27N 40°57' E 024°29'0 0.0
2014-Jul-15 02:33N 40°57' E 024°29'0 0.0
2014-Jul-15 01:32N 40°57' E 024°29'0 0.0
2014-Jul-15 00:26N 40°57' E 024°29'0 0.0
2014-Jul-14 23:25N 40°57' E 024°29'0 0.0
2014-Jul-14 22:30N 40°57' E 024°29'0 0.0
2014-Jul-14 21:30N 40°57' E 024°29'0 0.0
2014-Jul-14 20:29N 40°57' E 024°29'0 0.0
2014-Jul-14 19:23N 40°57' E 024°29'0 0.0
2014-Jul-14 18:31N 40°57' E 024°29'0 0.0
2014-Jul-14 17:33N 40°57' E 024°29'0 0.0
2014-Jul-14 16:33N 40°57' E 024°29'0 0.0
2014-Jul-14 15:32N 40°57' E 024°29'0 0.0
2014-Jul-14 14:32N 40°57' E 024°29'0 0.0
2014-Jul-14 13:31N 40°57' E 024°29'0 0.0
2014-Jul-14 11:17N 40°57' E 024°29'1 1.9
2014-Jul-14 10:33N 40°56' E 024°29'0 0.1
2014-Jul-14 09:27N 40°56' E 024°29'0 0.0
2014-Jul-14 08:32N 40°56' E 024°29'0 0.0
2014-Jul-14 07:32N 40°56' E 024°29'0 0.1
2014-Jul-14 06:28N 40°56' E 024°29'0 0.0
2014-Jul-14 05:31N 40°56' E 024°29'0 0.0
2014-Jul-14 04:33N 40°56' E 024°29'0 0.0
2014-Jul-14 03:29N 40°56' E 024°29'0 0.0
2014-Jul-14 02:26N 40°56' E 024°29'0 0.0
2014-Jul-14 01:31N 40°56' E 024°29'0 0.0
2014-Jul-14 00:22N 40°56' E 024°29'0 0.0
2014-Jul-13 23:33N 40°56' E 024°29'0 0.0
2014-Jul-13 22:29N 40°56' E 024°29'0 0.0
2014-Jul-13 21:29N 40°56' E 024°29'0 0.0
2014-Jul-13 20:25N 40°56' E 024°29'0 0.0
2014-Jul-13 19:31N 40°56' E 024°29'0 0.0
2014-Jul-13 18:33N 40°56' E 024°29'0 0.0
2014-Jul-13 17:29N 40°56' E 024°29'0 0.0
2014-Jul-13 16:32N 40°56' E 024°29'0 0.0
2014-Jul-13 15:31N 40°56' E 024°29'0 0.0
2014-Jul-13 14:31N 40°56' E 024°29'0 0.0
2014-Jul-13 13:33N 40°56' E 024°29'0 0.0
2014-Jul-13 12:33N 40°56' E 024°29'0 0.0
2014-Jul-13 11:29N 40°56' E 024°29'0 0.0
2014-Jul-13 10:31N 40°56' E 024°29'0 0.0
2014-Jul-13 09:31N 40°56' E 024°29'0 0.0
2014-Jul-13 08:27N 40°56' E 024°29'0 0.1
2014-Jul-13 07:33N 40°56' E 024°29'0 0.0
2014-Jul-13 06:32N 40°56' E 024°29'0 0.0
2014-Jul-13 05:31N 40°56' E 024°29'0 0.0
2014-Jul-13 04:28N 40°56' E 024°29'0 0.0
2014-Jul-13 03:33N 40°56' E 024°29'0 0.0
2014-Jul-13 02:33N 40°56' E 024°29'0 0.0
2014-Jul-13 01:32N 40°56' E 024°29'0 0.1
2014-Jul-13 00:32N 40°56' E 024°29'0 0.0
2014-Jul-12 23:28N 40°56' E 024°29'0 0.0
2014-Jul-12 22:33N 40°56' E 024°29'0 0.0
2014-Jul-12 21:33N 40°56' E 024°29'0 0.1
2014-Jul-12 20:32N 40°56' E 024°29'  
Track history (hours):
 
Tides and Currents Weather Stations Pressure Air Temp Water Temp Dewpoint Dewpoint Depression Visibility Wind Speed Wind Dir Waves Ship Positions

Tk Rotterdam

Last reported at 2014-Jul-22 19:33 UTC. Time now 2014-Jul-23 05:50 UTC.
Position N 40°51' E 029°17'.

Length 130 m; draft 5.2 m.

Type: Cargo ship. MMSI: 636014098.

Date/timePositionNaut miles runAvg speedWind from/ knotsBaromVisibWave heightAir tempDewpointWater temp
2014-Jul-22 19:33N 40°51' E 029°17'2 2.2
2014-Jul-22 18:33N 40°51' E 029°14'1 1.4
2014-Jul-22 17:30N 40°49' E 029°14'0 0.0
2014-Jul-22 16:29N 40°49' E 029°14'0 0.0
2014-Jul-22 15:28N 40°49' E 029°14'0 0.0
2014-Jul-22 14:28N 40°49' E 029°14'  
2014-Jul-19 11:28N 40°49' E 029°14'0 0.0
2014-Jul-19 10:27N 40°49' E 029°14'  
2014-Jul-16 11:20N 40°39' E 024°58'7 9.3
2014-Jul-16 10:33N 40°44' E 024°51'9 8.6
2014-Jul-16 09:33N 40°48' E 024°42'9 8.9
2014-Jul-16 08:33N 40°53' E 024°32'4 2.1
2014-Jul-16 06:28N 40°57' E 024°29'0 0.0
2014-Jul-16 05:27N 40°57' E 024°29'0 0.0
2014-Jul-16 04:30N 40°57' E 024°29'0 0.0
2014-Jul-16 03:32N 40°57' E 024°29'0 0.0
2014-Jul-16 02:32N 40°57' E 024°29'0 0.0
2014-Jul-16 01:31N 40°57' E 024°29'0 0.0
2014-Jul-16 00:31N 40°57' E 024°29'0 0.0
2014-Jul-15 23:30N 40°57' E 024°29'0 0.0
2014-Jul-15 22:26N 40°57' E 024°29'0 0.0
2014-Jul-15 21:29N 40°57' E 024°29'0 0.0
2014-Jul-15 20:16N 40°57' E 024°29'0 0.0
2014-Jul-15 19:09N 40°57' E 024°29'0 0.0
2014-Jul-15 18:33N 40°57' E 024°29'0 0.0
2014-Jul-15 17:08N 40°57' E 024°29'0 0.0
2014-Jul-15 16:32N 40°57' E 024°29'0 0.0
2014-Jul-15 15:19N 40°57' E 024°29'0 0.0
2014-Jul-15 14:28N 40°57' E 024°29'0 0.0
2014-Jul-15 13:15N 40°57' E 024°29'0 0.0
2014-Jul-15 12:33N 40°57' E 024°29'0 0.0
2014-Jul-15 11:32N 40°57' E 024°29'0 0.0
2014-Jul-15 10:07N 40°57' E 024°29'0 0.0
2014-Jul-15 09:25N 40°57' E 024°29'0 0.0
2014-Jul-15 08:18N 40°57' E 024°29'0 0.0
2014-Jul-15 07:33N 40°57' E 024°29'0 0.0
2014-Jul-15 06:29N 40°57' E 024°29'0 0.0
2014-Jul-15 05:32N 40°57' E 024°29'0 0.0
2014-Jul-15 04:28N 40°57' E 024°29'0 0.0
2014-Jul-15 03:27N 40°57' E 024°29'0 0.0
2014-Jul-15 02:33N 40°57' E 024°29'0 0.0
2014-Jul-15 01:32N 40°57' E 024°29'0 0.0
2014-Jul-15 00:26N 40°57' E 024°29'0 0.0
2014-Jul-14 23:25N 40°57' E 024°29'0 0.0
2014-Jul-14 22:30N 40°57' E 024°29'0 0.0
2014-Jul-14 21:30N 40°57' E 024°29'0 0.0
2014-Jul-14 20:29N 40°57' E 024°29'0 0.0
2014-Jul-14 19:23N 40°57' E 024°29'0 0.0
2014-Jul-14 18:31N 40°57' E 024°29'0 0.0
2014-Jul-14 17:33N 40°57' E 024°29'0 0.0
2014-Jul-14 16:33N 40°57' E 024°29'0 0.0
2014-Jul-14 15:32N 40°57' E 024°29'0 0.0
2014-Jul-14 14:32N 40°57' E 024°29'0 0.0
2014-Jul-14 13:31N 40°57' E 024°29'0 0.0
2014-Jul-14 11:17N 40°57' E 024°29'1 1.9
2014-Jul-14 10:33N 40°56' E 024°29'0 0.1
2014-Jul-14 09:27N 40°56' E 024°29'0 0.0
2014-Jul-14 08:32N 40°56' E 024°29'0 0.0
2014-Jul-14 07:32N 40°56' E 024°29'0 0.1
2014-Jul-14 06:28N 40°56' E 024°29'0 0.0
2014-Jul-14 05:31N 40°56' E 024°29'0 0.0
2014-Jul-14 04:33N 40°56' E 024°29'0 0.0
2014-Jul-14 03:29N 40°56' E 024°29'0 0.0
2014-Jul-14 02:26N 40°56' E 024°29'0 0.0
2014-Jul-14 01:31N 40°56' E 024°29'0 0.0
2014-Jul-14 00:22N 40°56' E 024°29'0 0.0
2014-Jul-13 23:33N 40°56' E 024°29'0 0.0
2014-Jul-13 22:29N 40°56' E 024°29'0 0.0
2014-Jul-13 21:29N 40°56' E 024°29'0 0.0
2014-Jul-13 20:25N 40°56' E 024°29'0 0.0
2014-Jul-13 19:31N 40°56' E 024°29'0 0.0
2014-Jul-13 18:33N 40°56' E 024°29'0 0.0
2014-Jul-13 17:29N 40°56' E 024°29'0 0.0
2014-Jul-13 16:32N 40°56' E 024°29'0 0.0
2014-Jul-13 15:31N 40°56' E 024°29'0 0.0
2014-Jul-13 14:31N 40°56' E 024°29'0 0.0
2014-Jul-13 13:33N 40°56' E 024°29'0 0.0
2014-Jul-13 12:33N 40°56' E 024°29'0 0.0
2014-Jul-13 11:29N 40°56' E 024°29'0 0.0
2014-Jul-13 10:31N 40°56' E 024°29'0 0.0
2014-Jul-13 09:31N 40°56' E 024°29'0 0.0
2014-Jul-13 08:27N 40°56' E 024°29'0 0.1
2014-Jul-13 07:33N 40°56' E 024°29'0 0.0
2014-Jul-13 06:32N 40°56' E 024°29'0 0.0
2014-Jul-13 05:31N 40°56' E 024°29'0 0.0
2014-Jul-13 04:28N 40°56' E 024°29'0 0.0
2014-Jul-13 03:33N 40°56' E 024°29'0 0.0
2014-Jul-13 02:33N 40°56' E 024°29'0 0.0
2014-Jul-13 01:32N 40°56' E 024°29'0 0.1
2014-Jul-13 00:32N 40°56' E 024°29'0 0.0
2014-Jul-12 23:28N 40°56' E 024°29'0 0.0
2014-Jul-12 22:33N 40°56' E 024°29'0 0.0
2014-Jul-12 21:33N 40°56' E 024°29'0 0.1
2014-Jul-12 20:32N 40°56' E 024°29'  

Dump ship's entire track history